Time;durP1;ratioP1;P1;durP2;ratioP2;P2;SDS_P1;SDS_P2;PMS_P1;PMS_P2;Temp;Humidity;BMP_temperature;BMP_pressure;BME280_temperature;BME280_humidity;BME280_pressure;Samples;Min_cycle;Max_cycle;Signal;HPM_P1;HPM_P2
2022/10/07 00:00:03;;;;;;;8.77;7.17;;;;;;;10.97;100.00;97458.16;5030459;28;105877;-60
2022/10/07 00:02:30;;;;;;;7.73;7.00;;;;;;;10.97;100.00;97452.84;5030924;28;102090;-60
2022/10/07 00:04:58;;;;;;;13.87;10.23;;;;;;;11.05;100.00;97455.19;5030864;28;105096;-60
2022/10/07 00:07:24;;;;;;;12.27;9.97;;;;;;;11.11;100.00;97448.94;5030861;28;102694;-60
2022/10/07 00:09:53;;;;;;;12.13;9.77;;;;;;;11.06;100.00;97449.63;5029887;28;101839;-60
2022/10/07 00:12:21;;;;;;;14.40;10.03;;;;;;;10.92;100.00;97444.72;5030816;28;104781;-60
2022/10/07 00:14:47;;;;;;;15.17;10.20;;;;;;;10.86;100.00;97437.66;5033830;28;101759;-60
2022/10/07 00:17:14;;;;;;;12.90;10.33;;;;;;;10.93;100.00;97446.34;5063566;27;105035;-60
2022/10/07 00:19:42;;;;;;;16.17;10.13;;;;;;;11.00;100.00;97447.06;5029285;28;105172;-60
2022/10/07 00:22:09;;;;;;;58.80;12.90;;;;;;;10.85;100.00;97444.03;5029458;28;102071;-60
2022/10/07 00:24:36;;;;;;;13.47;10.63;;;;;;;10.84;100.00;97434.41;5029667;28;105601;-60
2022/10/07 00:27:05;;;;;;;12.10;10.77;;;;;;;10.83;100.00;97436.25;5028509;28;105363;-60
2022/10/07 00:29:32;;;;;;;12.77;10.77;;;;;;;10.87;100.00;97432.13;5029488;28;101897;-60
2022/10/07 00:31:59;;;;;;;17.20;12.73;;;;;;;10.93;100.00;97435.72;5029477;28;105080;-60
2022/10/07 00:34:26;;;;;;;10.97;9.87;;;;;;;10.93;100.00;97433.03;5028871;28;105173;-60
2022/10/07 00:36:53;;;;;;;15.00;11.67;;;;;;;10.95;100.00;97428.31;5033738;28;102064;-60
2022/10/07 00:39:20;;;;;;;13.27;11.13;;;;;;;10.87;100.00;97428.63;5028613;28;105712;-60
2022/10/07 00:41:50;;;;;;;11.87;10.67;;;;;;;10.88;100.00;97420.44;5029245;28;102015;-60
2022/10/07 00:44:48;;;;;;;14.10;11.17;;;;;;;10.82;100.00;97426.66;5030599;28;103612;-60
2022/10/07 00:47:24;;;;;;;11.30;10.10;;;;;;;10.75;100.00;97417.16;4970999;28;105583;-60
2022/10/07 00:49:55;;;;;;;11.97;10.23;;;;;;;10.82;100.00;97416.00;4971062;28;102105;-60
2022/10/07 00:52:25;;;;;;;12.43;9.80;;;;;;;10.85;100.00;97409.44;5004580;28;105049;-60
2022/10/07 00:54:55;;;;;;;14.57;10.20;;;;;;;10.91;100.00;97411.19;4971724;28;105283;-60
2022/10/07 00:57:24;;;;;;;11.73;10.53;;;;;;;10.88;100.00;97408.97;4991200;28;102113;-60
2022/10/07 00:59:54;;;;;;;10.27;9.27;;;;;;;10.93;100.00;97404.59;4970820;28;105482;-60
2022/10/07 01:02:23;;;;;;;10.90;9.80;;;;;;;10.95;100.00;97402.50;4972201;28;101924;-60
2022/10/07 01:04:51;;;;;;;10.77;9.63;;;;;;;10.89;100.00;97394.59;4972257;28;105272;-60
2022/10/07 01:07:20;;;;;;;10.37;9.03;;;;;;;10.95;100.00;97393.72;5004597;28;105630;-60
2022/10/07 01:09:50;;;;;;;10.97;9.90;;;;;;;10.92;100.00;97391.50;4972216;28;101916;-60
2022/10/07 01:12:25;;;;;;;10.37;9.30;;;;;;;10.94;100.00;97378.78;5005284;28;105176;-60
2022/10/07 01:15:04;;;;;;;10.43;9.47;;;;;;;11.01;100.00;97376.84;4971018;28;105120;-60
2022/10/07 01:17:39;;;;;;;10.00;9.00;;;;;;;11.00;100.00;97383.19;4972156;28;101828;-60
2022/10/07 01:20:33;;;;;;;9.23;8.43;;;;;;;10.90;100.00;97372.31;4974544;28;105150;-60
2022/10/07 01:23:13;;;;;;;17.93;8.80;;;;;;;10.92;100.00;97371.03;5029618;28;101791;-60
2022/10/07 01:25:54;;;;;;;8.53;7.83;;;;;;;10.96;100.00;97366.84;5029526;28;106112;-60
2022/10/07 01:28:28;;;;;;;8.97;8.17;;;;;;;10.85;100.00;97364.19;5028924;28;105239;-60
2022/10/07 01:31:00;;;;;;;8.73;7.93;;;;;;;10.88;100.00;97369.88;5029196;28;101928;-60
2022/10/07 01:33:31;;;;;;;8.43;7.67;;;;;;;10.95;100.00;97377.75;5029423;28;104892;-60
2022/10/07 01:36:04;;;;;;;8.97;8.27;;;;;;;10.97;100.00;97373.81;5028923;28;105511;-60
2022/10/07 01:38:33;;;;;;;9.87;8.30;;;;;;;10.96;100.00;97368.72;5029589;28;101826;-60
2022/10/07 01:41:06;;;;;;;9.87;8.97;;;;;;;10.89;100.00;97360.84;5029141;28;105118;-60
2022/10/07 01:43:38;;;;;;;8.60;7.90;;;;;;;10.88;100.00;97363.72;5032183;28;105018;-60
2022/10/07 01:46:08;;;;;;;9.10;8.30;;;;;;;10.94;100.00;97362.81;5029167;28;105694;-60
2022/10/07 01:48:35;;;;;;;8.67;7.97;;;;;;;10.88;100.00;97359.22;5028757;28;105032;-60
2022/10/07 01:51:02;;;;;;;9.20;8.30;;;;;;;10.86;100.00;97347.19;5028763;28;102000;-60
2022/10/07 01:53:49;;;;;;;8.83;8.13;;;;;;;10.86;100.00;97355.16;5030139;28;101739;-59
2022/10/07 01:56:31;;;;;;;8.83;8.10;;;;;;;10.93;100.00;97361.19;5028605;28;104186;-60
2022/10/07 01:59:32;;;;;;;9.10;8.23;;;;;;;10.95;100.00;97359.13;5029200;28;101973;-60
2022/10/07 02:02:07;;;;;;;8.23;7.53;;;;;;;11.02;100.00;97354.50;5028872;28;105359;-60
2022/10/07 02:04:48;;;;;;;9.10;8.30;;;;;;;11.05;100.00;97357.50;5028524;28;105221;-60
2022/10/07 02:07:24;;;;;;;10.20;9.10;;;;;;;11.15;100.00;97362.25;5032547;28;101932;-60
2022/10/07 02:09:58;;;;;;;8.67;7.87;;;;;;;11.15;100.00;97364.91;5028339;28;104973;-60
2022/10/07 02:12:32;;;;;;;9.57;8.77;;;;;;;11.16;100.00;97355.88;5028962;28;101869;-60
2022/10/07 02:15:06;;;;;;;10.00;9.10;;;;;;;11.20;100.00;97357.88;5028979;28;105123;-60
2022/10/07 02:17:38;;;;;;;10.17;9.27;;;;;;;11.21;100.00;97353.34;5028199;28;105134;-60
2022/10/07 02:20:11;;;;;;;11.00;9.90;;;;;;;11.20;100.00;97355.22;5028863;28;101900;-60
2022/10/07 02:22:40;;;;;;;9.90;8.97;;;;;;;11.24;100.00;97352.91;5028622;28;104977;-60
2022/10/07 02:25:09;;;;;;;10.50;9.60;;;;;;;11.26;100.00;97345.47;5027103;28;105244;-60
2022/10/07 02:27:39;;;;;;;11.23;10.13;;;;;;;11.27;100.00;97349.75;5028387;28;101799;-59
2022/10/07 02:30:12;;;;;;;10.57;9.67;;;;;;;11.28;100.00;97351.41;5030697;28;104668;-60
2022/10/07 02:32:42;;;;;;;10.83;9.93;;;;;;;11.28;100.00;97348.75;5028768;28;101908;-60
2022/10/07 02:35:18;;;;;;;11.20;10.17;;;;;;;11.30;100.00;97346.66;5028747;28;103755;-59
2022/10/07 02:37:49;;;;;;;10.97;9.97;;;;;;;11.25;100.00;97343.88;5027075;28;105350;-60
2022/10/07 02:40:16;;;;;;;11.37;10.37;;;;;;;11.25;100.00;97346.53;5027323;28;101907;-59
2022/10/07 02:42:53;;;;;;;11.80;10.60;;;;;;;11.29;100.00;97345.03;5027484;28;105703;-60
2022/10/07 02:45:29;;;;;;;12.13;11.03;;;;;;;11.33;100.00;97330.22;5028626;28;103178;-60
2022/10/07 02:48:00;;;;;;;11.93;10.83;;;;;;;11.31;100.00;97337.63;5027564;28;101828;-60
2022/10/07 02:50:34;;;;;;;11.63;10.63;;;;;;;11.33;100.00;97335.56;5026964;28;104888;-60
2022/10/07 02:53:03;;;;;;;11.33;10.33;;;;;;;11.35;100.00;97331.59;5030061;28;105614;-60
2022/10/07 02:55:31;;;;;;;12.33;11.13;;;;;;;11.37;100.00;97336.69;5027386;28;105432;-60
2022/10/07 02:58:02;;;;;;;11.30;10.30;;;;;;;11.37;100.00;97332.19;5028064;27;102545;-59
2022/10/07 03:00:33;;;;;;;11.80;10.70;;;;;;;11.35;100.00;97328.91;5027399;28;101872;-60
2022/10/07 03:03:02;;;;;;;10.53;9.53;;;;;;;11.35;100.00;97330.78;5027189;28;105101;-60
2022/10/07 03:05:43;;;;;;;10.80;9.80;;;;;;;11.34;100.00;97326.50;5027487;28;105474;-59
2022/10/07 03:08:12;;;;;;;13.57;11.03;;;;;;;11.31;100.00;97321.63;5028091;28;102011;-59
2022/10/07 03:10:41;;;;;;;11.30;10.20;;;;;;;11.26;100.00;97324.19;5028888;27;102805;-60
2022/10/07 03:13:10;;;;;;;12.10;10.30;;;;;;;11.11;100.00;97324.66;5030120;28;104874;-60
2022/10/07 03:15:42;;;;;;;11.87;10.73;;;;;;;11.05;100.00;97316.75;5027134;28;105479;-60
2022/10/07 03:18:24;;;;;;;11.70;10.60;;;;;;;10.99;100.00;97318.50;5026827;28;105538;-60
2022/10/07 03:20:56;;;;;;;11.17;10.17;;;;;;;10.96;100.00;97318.16;5026938;28;101804;-60
2022/10/07 03:23:23;;;;;;;11.37;10.37;;;;;;;10.96;100.00;97321.63;5026936;28;105791;-60
2022/10/07 03:25:52;;;;;;;12.67;11.47;;;;;;;10.97;100.00;97319.78;5026632;28;105482;-60
2022/10/07 03:28:22;;;;;;;12.10;10.93;;;;;;;11.00;100.00;97313.97;5026753;28;101801;-59
2022/10/07 03:30:51;;;;;;;22.87;13.53;;;;;;;11.00;100.00;97319.31;5028586;28;101803;-60
2022/10/07 03:33:23;;;;;;;14.03;12.67;;;;;;;10.96;100.00;97318.16;5025920;28;103936;-59
2022/10/07 03:35:51;;;;;;;14.47;13.07;;;;;;;11.00;100.00;97314.81;5030540;27;101899;-60
2022/10/07 03:38:18;;;;;;;13.93;12.53;;;;;;;11.00;100.00;97314.81;5029875;28;105221;-60
2022/10/07 03:40:45;;;;;;;15.63;14.10;;;;;;;10.98;100.00;97310.75;5029880;28;101816;-60
2022/10/07 03:43:13;;;;;;;16.83;14.73;;;;;;;10.99;100.00;97312.38;5030129;28;106341;-60
2022/10/07 03:45:44;;;;;;;47.40;17.10;;;;;;;11.02;100.00;97312.72;5029685;28;105524;-60
2022/10/07 03:48:12;;;;;;;18.13;16.23;;;;;;;10.99;100.00;97309.69;5030217;28;101872;-60
2022/10/07 03:50:40;;;;;;;17.47;15.77;;;;;;;11.01;100.00;97310.31;5029488;28;105217;-60
2022/10/07 03:53:07;;;;;;;17.70;16.00;;;;;;;11.01;100.00;97295.13;5029522;28;105877;-60
2022/10/07 03:55:36;;;;;;;17.20;15.50;;;;;;;11.00;100.00;97308.66;5030048;28;101887;-60
2022/10/07 03:58:03;;;;;;;16.27;14.67;;;;;;;10.99;100.00;97304.38;5032740;28;105482;-60
2022/10/07 04:00:31;;;;;;;17.00;15.30;;;;;;;10.99;100.00;97307.03;5029771;28;101876;-60
2022/10/07 04:02:59;;;;;;;20.10;16.93;;;;;;;11.04;100.00;97300.00;5029892;28;105162;-60
2022/10/07 04:05:28;;;;;;;16.10;14.40;;;;;;;11.02;100.00;97296.75;5029212;28;105845;-60
2022/10/07 04:07:55;;;;;;;16.90;15.10;;;;;;;11.09;100.00;97294.78;5029719;28;101900;-60
2022/10/07 04:10:23;;;;;;;17.23;15.43;;;;;;;11.12;100.00;97293.53;5029888;28;104806;-59
2022/10/07 04:12:51;;;;;;;18.27;16.17;;;;;;;11.11;100.00;97295.38;5029299;28;105411;-60
2022/10/07 04:15:19;;;;;;;18.07;16.17;;;;;;;11.09;100.00;97296.63;5031021;27;101874;-60
2022/10/07 04:17:48;;;;;;;17.87;15.97;;;;;;;11.10;100.00;97292.94;5029544;28;105372;-60
2022/10/07 04:20:18;;;;;;;17.70;15.80;;;;;;;11.10;100.00;97299.06;5032368;28;105478;-60
2022/10/07 04:22:47;;;;;;;18.00;15.73;;;;;;;11.16;100.00;97282.16;5029605;28;105116;-60
2022/10/07 04:28:01;;;;;;;39.97;19.03;;;;;;;11.15;100.00;97282.41;5029391;28;102033;-60
2022/10/07 04:30:33;;;;;;;85.57;20.37;;;;;;;11.13;100.00;97279.97;5029489;28;105519;-60
2022/10/07 04:33:01;;;;;;;18.83;16.83;;;;;;;11.06;100.00;97276.63;5029037;28;105280;-59
2022/10/07 04:35:29;;;;;;;18.47;16.47;;;;;;;11.04;100.00;97277.88;5028971;28;103853;-60
2022/10/07 04:37:58;;;;;;;19.87;17.50;;;;;;;11.01;100.00;97273.03;5029261;28;104793;-60
2022/10/07 04:40:29;;;;;;;18.83;16.80;;;;;;;11.02;100.00;97270.13;5028958;28;105557;-59
2022/10/07 04:45:41;;;;;;;17.37;15.57;;;;;;;11.03;100.00;97265.63;5028829;28;104013;-60
2022/10/07 04:48:10;;;;;;;16.77;15.00;;;;;;;11.01;100.00;97267.72;5028180;27;102100;-60
2022/10/07 04:50:38;;;;;;;18.27;16.33;;;;;;;11.00;100.00;97276.72;5028698;28;104861;-60
2022/10/07 04:53:10;;;;;;;16.43;14.67;;;;;;;10.89;100.00;97273.03;5028529;28;105737;-59
2022/10/07 04:55:40;;;;;;;15.10;13.50;;;;;;;10.91;100.00;97265.59;5028844;28;101813;-60
2022/10/07 04:58:08;;;;;;;14.20;12.77;;;;;;;10.90;100.00;97271.19;5029296;28;105641;-60
2022/10/07 05:00:42;;;;;;;14.23;12.83;;;;;;;10.92;100.00;97269.09;5028700;28;105699;-60
2022/10/07 05:03:09;;;;;;;14.70;13.30;;;;;;;10.96;100.00;97264.94;5028880;28;101878;-60
2022/10/07 05:05:38;;;;;;;13.77;12.40;;;;;;;10.97;100.00;97259.34;5032014;28;103612;-60
2022/10/07 05:08:06;;;;;;;14.30;13.00;;;;;;;10.99;100.00;97262.63;5029169;28;101964;-60
2022/10/07 05:10:37;;;;;;;14.43;13.00;;;;;;;11.02;100.00;97256.03;5029084;28;104764;-60
2022/10/07 05:13:05;;;;;;;14.07;12.67;;;;;;;11.03;100.00;97258.47;5028399;28;105502;-60
2022/10/07 05:15:32;;;;;;;13.07;11.83;;;;;;;11.01;100.00;97255.19;5030504;28;101919;-60
2022/10/07 05:18:00;;;;;;;12.60;11.40;;;;;;;11.00;100.00;97256.25;5028955;28;104912;-60
2022/10/07 05:21:06;;;;;;;13.50;12.13;;;;;;;11.08;100.00;97255.09;5028389;28;105502;-60
2022/10/07 05:23:35;;;;;;;13.20;11.93;;;;;;;11.04;100.00;97256.59;5028703;28;101768;-60
2022/10/07 05:26:08;;;;;;;14.03;12.53;;;;;;;11.10;100.00;97245.00;5031828;28;105145;-60
2022/10/07 05:28:38;;;;;;;13.70;12.30;;;;;;;11.11;100.00;97249.28;5030171;27;101666;-60
2022/10/07 05:31:10;;;;;;;15.03;13.43;;;;;;;11.16;100.00;97246.75;5028742;28;104715;-60
2022/10/07 05:33:37;;;;;;;14.50;13.07;;;;;;;11.20;100.00;97245.25;5027815;28;105757;-60
2022/10/07 05:36:23;;;;;;;13.40;12.10;;;;;;;11.20;100.00;97239.91;5028595;28;102089;-60
2022/10/07 05:38:54;;;;;;;14.07;12.70;;;;;;;11.17;100.00;97246.50;5028629;28;105179;-60
2022/10/07 05:41:26;;;;;;;13.60;12.33;;;;;;;11.15;100.00;97237.97;5027987;28;105651;-60
2022/10/07 05:43:54;;;;;;;13.20;12.00;;;;;;;11.13;100.00;97239.22;5028091;28;101987;-59
2022/10/07 05:46:45;;;;;;;13.47;12.07;;;;;;;11.20;100.00;97242.56;5028660;28;104740;-59
2022/10/07 05:50:03;;;;;;;12.07;10.93;;;;;;;11.23;100.00;97244.78;5027773;28;105611;-59
2022/10/07 05:52:31;;;;;;;14.27;11.73;;;;;;;11.22;100.00;97251.13;5011107;28;104090;-60
2022/10/07 05:54:58;;;;;;;13.03;10.93;;;;;;;11.21;100.00;97242.34;5028028;28;105458;-59
2022/10/07 05:57:38;;;;;;;13.33;11.93;;;;;;;11.18;100.00;97236.69;5028212;28;101995;-59
2022/10/07 06:00:08;;;;;;;14.90;12.87;;;;;;;11.21;100.00;97239.69;5028284;28;105278;-59
2022/10/07 06:02:40;;;;;;;14.77;13.27;;;;;;;11.25;100.00;97245.34;5026204;27;102415;-60
2022/10/07 06:05:09;;;;;;;14.90;12.13;;;;;;;11.28;100.00;97244.91;5027974;28;102022;-60
2022/10/07 06:07:36;;;;;;;14.53;11.23;;;;;;;11.27;100.00;97245.91;5028218;28;104906;-59
2022/10/07 06:13:09;;;;;;;12.03;10.70;;;;;;;11.27;100.00;97246.75;5031603;28;101912;-59
2022/10/07 06:15:44;;;;;;;11.63;10.43;;;;;;;11.35;100.00;97248.25;5027599;28;104894;-59
2022/10/07 06:18:11;;;;;;;12.30;9.93;;;;;;;11.38;100.00;97237.09;5027978;28;101786;-59
2022/10/07 06:20:41;;;;;;;12.10;10.83;;;;;;;11.39;100.00;97238.75;5014487;28;105117;-59
2022/10/07 06:23:08;;;;;;;12.57;11.03;;;;;;;11.36;100.00;97249.84;5027619;28;105120;-60
2022/10/07 06:25:35;;;;;;;12.13;10.37;;;;;;;11.41;100.00;97250.78;5027914;28;102052;-59
2022/10/07 06:28:04;;;;;;;10.83;9.57;;;;;;;11.36;100.00;97258.66;5028025;28;105121;-59
2022/10/07 06:30:31;;;;;;;10.60;9.60;;;;;;;11.32;100.00;97257.50;5029375;28;102843;-59
2022/10/07 06:33:00;;;;;;;9.83;8.93;;;;;;;11.32;100.00;97259.34;5029107;28;101991;-60
2022/10/07 06:35:28;;;;;;;13.33;9.63;;;;;;;11.30;100.00;97261.44;5031359;28;104846;-59
2022/10/07 06:38:06;;;;;;;10.57;9.43;;;;;;;11.35;100.00;97256.22;5028509;28;101927;-59
2022/10/07 06:40:34;;;;;;;11.60;9.80;;;;;;;11.30;100.00;97262.25;5008803;28;104783;-59
2022/10/07 06:43:01;;;;;;;17.10;9.87;;;;;;;11.33;100.00;97258.31;5011765;28;104199;-60
2022/10/07 06:45:47;;;;;;;12.00;9.87;;;;;;;11.41;100.00;97265.94;5028715;28;101897;-59
2022/10/07 06:48:14;;;;;;;12.57;11.00;;;;;;;11.41;100.00;97274.75;5028745;28;103828;-59
2022/10/07 06:50:50;;;;;;;11.47;8.87;;;;;;;11.35;100.00;97269.53;5028237;27;102994;-59
2022/10/07 06:53:17;;;;;;;10.83;9.73;;;;;;;11.53;100.00;97266.72;5030159;27;101812;-59
2022/10/07 06:56:13;;;;;;;11.77;9.97;;;;;;;11.57;100.00;97265.22;5028531;28;105173;-59
2022/10/07 06:58:43;;;;;;;12.67;9.90;;;;;;;11.63;100.00;97262.47;5030368;28;105771;-59
2022/10/07 07:01:14;;;;;;;15.20;9.87;;;;;;;11.69;100.00;97255.38;5028249;28;104837;-59
2022/10/07 07:03:41;;;;;;;10.97;9.73;;;;;;;11.73;100.00;97267.97;5027628;28;105942;-59
2022/10/07 07:06:47;;;;;;;14.47;10.30;;;;;;;11.79;100.00;97266.22;5028236;28;102102;-59
2022/10/07 07:09:15;;;;;;;14.70;9.90;;;;;;;11.89;100.00;97258.44;5027593;28;105413;-59
2022/10/07 07:11:44;;;;;;;10.93;9.13;;;;;;;11.88;100.00;97259.50;5029015;28;104730;-59
2022/10/07 07:14:24;;;;;;;14.13;9.47;;;;;;;12.00;100.00;97257.59;5031770;28;101850;-60
2022/10/07 07:17:01;;;;;;;9.33;8.43;;;;;;;11.78;100.00;97260.09;5031742;28;103712;-59
2022/10/07 07:19:28;;;;;;;12.50;8.93;;;;;;;11.90;100.00;97260.06;5032720;28;102802;-59
2022/10/07 07:22:10;;;;;;;9.47;8.57;;;;;;;12.05;100.00;97249.69;5035111;28;102059;-60
2022/10/07 07:24:39;;;;;;;10.67;8.67;;;;;;;12.00;100.00;97258.38;5030888;28;106047;-59
2022/10/07 07:27:20;;;;;;;11.17;8.83;;;;;;;12.12;100.00;97256.50;5031463;28;101890;-60
2022/10/07 07:29:49;;;;;;;11.70;9.97;;;;;;;12.05;100.00;97263.03;5031614;28;104922;-60
2022/10/07 07:32:18;;;;;;;10.83;9.73;;;;;;;11.93;100.00;97267.59;5030184;28;105413;-59
2022/10/07 07:34:46;;;;;;;11.23;9.73;;;;;;;11.93;100.00;97267.59;5031157;28;101869;-59
2022/10/07 07:38:09;;;;;;;10.03;8.90;;;;;;;11.97;100.00;97263.38;5031603;28;105581;-59
2022/10/07 07:40:38;;;;;;;11.47;8.60;;;;;;;12.18;100.00;97260.06;5030596;28;106025;-59
2022/10/07 07:43:05;;;;;;;11.07;9.93;;;;;;;12.69;100.00;97258.03;5036011;27;101966;-59
2022/10/07 07:45:32;;;;;;;10.27;9.27;;;;;;;12.90;100.00;97256.47;5030407;28;106017;-60
2022/10/07 07:48:01;;;;;;;9.87;8.87;;;;;;;13.15;100.00;97246.22;5016090;28;101856;-60
2022/10/07 07:50:30;;;;;;;9.63;8.40;;;;;;;12.83;100.00;97240.66;5027831;28;105816;-59
2022/10/07 07:52:59;;;;;;;8.77;7.93;;;;;;;12.98;100.00;97235.53;5030531;28;105580;-60
2022/10/07 07:55:26;;;;;;;11.20;8.57;;;;;;;13.12;100.00;97241.34;5031147;28;101908;-60
2022/10/07 08:01:18;;;;;;;10.80;8.83;;;;;;;13.33;100.00;97238.75;5044004;27;104093;-59
2022/10/07 08:03:48;;;;;;;9.43;8.43;;;;;;;13.47;100.00;97233.84;5044722;27;101861;-60
2022/10/07 08:06:19;;;;;;;10.97;8.93;;;;;;;13.88;100.00;97227.91;5014631;28;105043;-59
2022/10/07 08:08:47;;;;;;;11.47;9.40;;;;;;;13.79;100.00;97227.53;5030916;28;101809;-59
2022/10/07 08:11:16;;;;;;;12.00;9.17;;;;;;;13.64;100.00;97223.91;5030533;28;104824;-59
2022/10/07 08:13:45;;;;;;;12.50;10.50;;;;;;;13.33;100.00;97227.22;5030137;28;106100;-60
2022/10/07 08:16:17;;;;;;;10.80;9.70;;;;;;;13.04;100.00;97234.56;5029864;28;101992;-60
2022/10/07 08:18:49;;;;;;;13.00;10.33;;;;;;;13.04;100.00;97239.91;5030761;28;104842;-60
2022/10/07 08:21:21;;;;;;;12.20;10.27;;;;;;;12.96;100.00;97236.84;5029080;28;105635;-59
2022/10/07 08:23:53;;;;;;;11.53;10.33;;;;;;;12.88;100.00;97239.91;5028190;27;103095;-60
2022/10/07 08:26:21;;;;;;;11.17;10.10;;;;;;;13.00;100.00;97232.63;5029679;28;105092;-60
2022/10/07 08:28:48;;;;;;;13.13;10.30;;;;;;;13.13;100.00;97227.75;5032508;28;104074;-60
2022/10/07 08:31:18;;;;;;;10.53;9.53;;;;;;;13.08;100.00;97234.91;5029708;28;105179;-59
2022/10/07 08:33:48;;;;;;;11.37;9.73;;;;;;;12.96;100.00;97220.81;5030930;28;102767;-58
2022/10/07 08:36:17;;;;;;;10.93;9.77;;;;;;;13.24;100.00;97228.72;5013531;28;102026;-59
2022/10/07 08:38:45;;;;;;;11.70;10.47;;;;;;;13.39;100.00;97220.91;5024512;28;104828;-59
2022/10/07 08:41:32;;;;;;;10.67;9.57;;;;;;;13.57;100.00;97218.72;5029654;28;102565;-58
2022/10/07 08:44:07;;;;;;;12.23;9.83;;;;;;;13.33;100.00;97214.69;5030422;28;102046;-59
2022/10/07 08:46:38;;;;;;;11.60;10.40;;;;;;;13.20;100.00;97228.38;5029551;28;106039;-59
2022/10/07 08:49:14;;;;;;;11.13;9.90;;;;;;;13.25;100.00;97217.78;5028930;28;105789;-59
2022/10/07 08:51:47;;;;;;;11.60;9.53;;;;;;;13.36;100.00;97205.38;5013044;28;104534;-59
2022/10/07 08:54:16;;;;;;;11.70;9.60;;;;;;;13.54;100.00;97213.91;5010698;28;105416;-59
2022/10/07 08:56:43;;;;;;;12.13;9.40;;;;;;;13.75;100.00;97209.59;5030251;28;101944;-59
2022/10/07 08:59:20;;;;;;;10.30;9.30;;;;;;;14.32;100.00;97205.41;5030089;28;105567;-59
2022/10/07 09:01:59;;;;;;;10.67;9.07;;;;;;;14.31;100.00;97195.75;5029754;28;105214;-59
2022/10/07 09:04:33;;;;;;;10.83;9.33;;;;;;;14.54;100.00;97198.09;5029581;28;101869;-59
2022/10/07 09:07:04;;;;;;;10.07;9.07;;;;;;;14.77;100.00;97195.09;5031430;28;102293;-59
2022/10/07 09:09:37;;;;;;;9.87;8.87;;;;;;;14.77;100.00;97181.69;5028848;28;105425;-59
2022/10/07 09:12:08;;;;;;;10.10;8.03;;;;;;;14.55;100.00;97183.66;5030030;28;102273;-59
2022/10/07 09:14:38;;;;;;;9.63;8.50;;;;;;;14.28;100.00;97190.94;5032985;28;104849;-59
2022/10/07 09:17:11;;;;;;;9.53;7.90;;;;;;;14.60;100.00;97181.03;5030161;28;102041;-59
2022/10/07 09:19:45;;;;;;;9.27;7.40;;;;;;;14.88;100.00;97178.03;5031563;27;102991;-59
2022/10/07 09:22:20;;;;;;;8.57;7.67;;;;;;;14.89;100.00;97176.94;5029198;28;105490;-59
2022/10/07 09:24:48;;;;;;;9.10;7.23;;;;;;;14.99;100.00;97179.69;5029486;28;101883;-59
2022/10/07 09:27:42;;;;;;;8.40;7.53;;;;;;;15.41;100.00;97169.75;5029903;28;105276;-59
2022/10/07 09:30:13;;;;;;;8.83;7.93;;;;;;;15.39;100.00;97162.00;5029169;28;105770;-59
2022/10/07 09:32:43;;;;;;;9.70;8.53;;;;;;;15.48;100.00;97157.72;5029844;28;101978;-59
2022/10/07 09:35:14;;;;;;;14.57;11.63;;;;;;;14.64;100.00;97166.06;5029243;27;105089;-59
2022/10/07 09:38:07;;;;;;;12.90;11.23;;;;;;;14.23;100.00;97167.59;5030890;28;101933;-59
2022/10/07 09:41:13;;;;;;;13.43;11.80;;;;;;;14.20;100.00;97165.44;5028569;28;106081;-59
2022/10/07 09:43:26;;;;;;;13.07;11.20;;;;;;;14.49;100.00;97157.94;5029338;28;103204;-59
2022/10/07 09:45:56;;;;;;;12.50;11.07;;;;;;;15.14;100.00;97155.66;5028220;28;101993;-59
2022/10/07 09:48:27;;;;;;;12.47;10.93;;;;;;;15.26;100.00;97153.59;5030076;28;102559;-59
2022/10/07 09:51:14;;;;;;;13.20;11.13;;;;;;;14.78;100.00;97156.53;5020687;28;105496;-60
2022/10/07 09:53:56;;;;;;;12.00;10.47;;;;;;;15.32;100.00;97158.69;5029610;28;101953;-59
2022/10/07 09:56:41;;;;;;;11.23;9.97;;;;;;;15.71;100.00;97146.56;5029952;27;102668;-59
2022/10/07 09:59:19;;;;;;;12.90;10.37;;;;;;;15.64;100.00;97146.00;5032027;28;104437;-59
2022/10/07 10:01:51;;;;;;;13.57;10.70;;;;;;;15.77;100.00;97133.97;5029353;28;102377;-59
2022/10/07 10:04:20;;;;;;;12.10;10.13;;;;;;;15.23;100.00;97140.69;5029310;28;103072;-59
2022/10/07 10:07:27;;;;;;;11.60;9.97;;;;;;;15.83;100.00;97138.25;5029281;28;101940;-59
2022/10/07 10:09:56;;;;;;;11.83;9.90;;;;;;;15.67;100.00;97128.56;5027800;28;105182;-59
2022/10/07 10:12:26;;;;;;;12.47;10.50;;;;;;;16.20;100.00;97137.00;5030228;28;102601;-59
2022/10/07 10:14:55;;;;;;;12.43;11.13;;;;;;;16.19;100.00;97129.22;5029429;28;101888;-59
2022/10/07 10:17:31;;;;;;;12.20;10.90;;;;;;;14.99;100.00;97131.50;5029378;27;103021;-59
2022/10/07 10:20:25;;;;;;;13.33;12.03;;;;;;;14.82;100.00;97137.00;5026993;28;105555;-59
2022/10/07 10:22:55;;;;;;;13.97;11.43;;;;;;;14.96;100.00;97137.34;5032539;28;101956;-59
2022/10/07 10:28:22;;;;;;;12.87;11.50;;;;;;;15.17;100.00;97131.03;5027888;28;101813;-59
2022/10/07 10:31:00;;;;;;;12.83;11.10;;;;;;;15.25;100.00;97119.81;5027853;28;104056;-60
2022/10/07 10:33:34;;;;;;;12.23;11.03;;;;;;;14.81;100.00;97129.22;5027600;28;105694;-59
2022/10/07 10:36:19;;;;;;;12.47;10.77;;;;;;;14.63;100.00;97124.28;5027825;28;101883;-60
2022/10/07 10:38:59;;;;;;;12.70;11.40;;;;;;;14.50;100.00;97116.72;5028079;28;105243;-59
2022/10/07 10:41:36;;;;;;;14.83;12.47;;;;;;;14.69;100.00;97124.06;5052006;27;105240;-59
2022/10/07 10:44:45;;;;;;;12.30;11.07;;;;;;;14.99;100.00;97118.88;5027792;28;101944;-59
2022/10/07 10:47:45;;;;;;;10.97;9.90;;;;;;;15.73;100.00;97112.25;4955279;28;105730;-59
2022/10/07 10:50:30;;;;;;;12.43;9.90;;;;;;;15.74;100.00;97104.97;5046019;27;101941;-59
2022/10/07 10:53:09;;;;;;;11.60;10.50;;;;;;;15.65;100.00;97099.31;5013265;28;102438;-59
2022/10/07 10:56:03;;;;;;;11.87;10.67;;;;;;;15.72;100.00;97094.53;5011634;28;102660;-59
2022/10/07 10:58:41;;;;;;;12.33;10.50;;;;;;;15.43;100.00;97096.06;5027090;28;101940;-59
2022/10/07 11:01:22;;;;;;;12.17;10.97;;;;;;;15.17;100.00;97097.03;5012326;28;102417;-59
2022/10/07 11:04:21;;;;;;;13.93;11.43;;;;;;;15.59;100.00;97094.25;5026933;28;105532;-59
2022/10/07 11:06:53;;;;;;;12.37;10.13;;;;;;;15.25;100.00;97091.16;5007024;28;101888;-60
2022/10/07 11:09:26;;;;;;;11.23;10.20;;;;;;;15.16;100.00;97089.25;5012107;28;102337;-59
2022/10/07 11:11:55;;;;;;;11.57;10.37;;;;;;;15.55;100.00;97088.59;5031127;28;105844;-59
2022/10/07 11:14:24;;;;;;;11.73;10.53;;;;;;;15.69;100.00;97078.97;5030419;28;103503;-59
2022/10/07 11:16:55;;;;;;;11.83;10.63;;;;;;;15.55;100.00;97077.06;5029818;28;103818;-59
2022/10/07 11:19:29;;;;;;;11.73;10.47;;;;;;;15.82;100.00;97069.59;5031828;27;101920;-59
2022/10/07 11:21:59;;;;;;;11.53;10.53;;;;;;;16.06;100.00;97062.63;5031760;28;102924;-59
2022/10/07 11:24:29;;;;;;;12.13;10.77;;;;;;;16.09;100.00;97059.44;5030980;27;102535;-59
2022/10/07 11:27:03;;;;;;;11.70;10.07;;;;;;;16.25;100.00;97056.47;5030122;28;102000;-59
2022/10/07 11:29:37;;;;;;;13.03;11.73;;;;;;;15.69;100.00;97051.38;5030400;28;105625;-59
2022/10/07 11:32:12;;;;;;;12.10;10.93;;;;;;;16.47;100.00;97056.22;5031343;28;103223;-59
2022/10/07 11:34:44;;;;;;;13.73;12.00;;;;;;;15.77;100.00;97045.47;5033534;28;101780;-59
2022/10/07 11:37:18;;;;;;;13.23;11.80;;;;;;;15.79;100.00;97056.72;5030403;27;103228;-59
2022/10/07 11:39:45;;;;;;;12.43;11.23;;;;;;;15.71;100.00;97049.22;5030072;28;102124;-59
2022/10/07 11:42:20;;;;;;;13.20;11.80;;;;;;;16.28;100.00;97044.38;5031384;28;102375;-59
2022/10/07 11:44:56;;;;;;;13.57;12.17;;;;;;;15.81;100.00;97043.88;5031078;27;104111;-60
2022/10/07 11:47:30;;;;;;;14.07;12.63;;;;;;;15.73;100.00;97044.38;5031322;27;101779;-59